createdAt,value
2018-04-23T00:04:27.522Z,3.37
2018-04-23T00:14:20.653Z,3.36
2018-04-23T00:24:17.408Z,3.36
2018-04-23T00:34:16.122Z,3.36
2018-04-23T00:44:11.024Z,3.36
2018-04-23T00:54:08.237Z,3.36
2018-04-23T01:04:04.364Z,3.36
2018-04-23T01:13:58.640Z,3.36
2018-04-23T01:23:54.636Z,3.36
2018-04-23T01:33:52.818Z,3.36
2018-04-23T01:43:50.043Z,3.36
2018-04-23T01:53:44.912Z,3.36
2018-04-23T02:03:43.052Z,3.35
2018-04-23T02:13:38.052Z,3.35
2018-04-23T02:23:36.547Z,3.35
2018-04-23T02:33:34.295Z,3.35
2018-04-23T02:43:29.805Z,3.34
2018-04-23T02:53:25.674Z,3.34
2018-04-23T03:03:23.791Z,3.34
2018-04-23T03:13:20.906Z,3.34
2018-04-23T03:23:14.613Z,3.34
2018-04-23T03:33:12.416Z,3.34
2018-04-23T03:43:04.267Z,3.34
2018-04-23T03:53:01.490Z,3.34
2018-04-23T04:02:59.633Z,3.34
2018-04-23T04:12:56.011Z,3.34
2018-04-23T04:22:52.162Z,3.34
2018-04-23T04:32:47.005Z,3.34
2018-04-23T04:42:45.978Z,3.34
2018-04-23T04:52:42.191Z,3.34
2018-04-23T05:02:38.179Z,3.35
2018-04-23T05:12:33.918Z,3.36
2018-04-23T05:22:32.293Z,3.36
2018-04-23T05:32:30.623Z,3.37
2018-04-23T05:42:28.285Z,3.37
2018-04-23T05:52:21.958Z,3.37
2018-04-23T06:02:20.367Z,3.38
2018-04-23T06:12:16.796Z,3.39
2018-04-23T06:22:14.776Z,3.39
2018-04-23T06:32:13.063Z,3.40
2018-04-23T06:42:12.128Z,3.40
2018-04-23T06:52:09.460Z,3.41
2018-04-23T07:02:07.554Z,3.42
2018-04-23T07:12:04.599Z,3.42
2018-04-23T07:22:04.343Z,3.43
2018-04-23T07:32:01.802Z,3.43
2018-04-23T07:41:59.063Z,3.44
2018-04-23T07:51:58.541Z,3.44
2018-04-23T08:01:34.691Z,3.44
2018-04-23T08:11:12.902Z,3.43
2018-04-23T08:20:54.127Z,3.43
2018-04-23T08:30:23.540Z,3.43
2018-04-23T08:40:01.737Z,3.43
2018-04-23T08:49:39.765Z,3.43
2018-04-23T08:59:18.511Z,3.43
2018-04-23T09:08:55.951Z,3.43
2018-04-23T09:18:33.781Z,3.43
2018-04-23T09:28:12.110Z,3.43
2018-04-23T09:37:49.946Z,3.42
2018-04-23T09:47:27.385Z,3.42
2018-04-23T09:57:03.346Z,3.42
2018-04-23T10:06:40.837Z,3.43
2018-04-23T10:16:18.956Z,3.42
2018-04-23T10:25:57.013Z,3.42
2018-04-23T10:35:34.491Z,3.43
2018-04-23T10:45:10.867Z,3.42
2018-04-23T10:54:48.470Z,3.43
2018-04-23T11:04:26.022Z,3.42
2018-04-23T11:13:59.693Z,3.42
2018-04-23T11:23:36.047Z,3.42
2018-04-23T11:33:12.539Z,3.42
2018-04-23T11:42:49.663Z,3.42
2018-04-23T11:52:26.400Z,3.42
2018-04-23T12:02:05.683Z,3.42
2018-04-23T12:11:43.342Z,3.42
2018-04-23T12:21:20.762Z,3.42
2018-04-23T12:30:57.491Z,3.42
2018-04-23T12:40:35.021Z,3.42
2018-04-23T12:50:12.783Z,3.42
2018-04-23T12:59:52.390Z,3.42
2018-04-23T13:09:29.506Z,3.42
2018-04-23T13:19:04.996Z,3.42
2018-04-23T13:28:41.219Z,3.42
2018-04-23T13:38:17.960Z,3.42
2018-04-23T13:47:53.031Z,3.42
2018-04-23T13:57:29.226Z,3.42
2018-04-23T14:07:06.024Z,3.42
2018-04-23T14:16:43.474Z,3.42
2018-04-23T14:26:20.790Z,3.42
2018-04-23T14:35:58.538Z,3.42
2018-04-23T14:45:37.343Z,3.42
2018-04-23T14:55:12.315Z,3.42
2018-04-23T15:04:47.395Z,3.46
2018-04-23T15:14:24.321Z,3.46
2018-04-23T15:24:00.763Z,3.46
2018-04-23T15:33:37.069Z,3.44
2018-04-23T15:43:13.411Z,3.44
2018-04-23T15:52:49.901Z,3.44
2018-04-23T16:02:26.661Z,3.44
2018-04-23T16:12:02.698Z,3.43
2018-04-23T16:21:39.640Z,3.43
2018-04-23T16:31:34.382Z,3.43
2018-04-23T16:41:28.072Z,3.43
2018-04-23T16:51:22.280Z,3.43
2018-04-23T17:01:19.403Z,3.43
2018-04-23T17:11:17.630Z,3.43
2018-04-23T17:21:13.831Z,3.43
2018-04-23T17:31:06.845Z,3.43
2018-04-23T17:41:01.879Z,3.43
2018-04-23T17:50:57.178Z,3.42
2018-04-23T18:00:52.748Z,3.42
2018-04-23T18:10:47.296Z,3.42
2018-04-23T18:20:39.612Z,3.42
2018-04-23T18:30:37.798Z,3.42
2018-04-23T18:40:29.541Z,3.42
2018-04-23T18:50:25.389Z,3.42
2018-04-23T19:00:21.331Z,3.42
2018-04-23T19:10:18.054Z,3.41
2018-04-23T19:20:12.832Z,3.41
2018-04-23T19:30:09.086Z,3.41
2018-04-23T19:40:03.670Z,3.41
2018-04-23T19:49:59.979Z,3.41
2018-04-23T19:59:57.651Z,3.41
2018-04-23T20:09:54.165Z,3.40
2018-04-23T20:19:47.197Z,3.40
2018-04-23T20:29:42.642Z,3.40
2018-04-23T20:39:37.200Z,3.40
2018-04-23T20:49:32.673Z,3.40
2018-04-23T20:59:30.359Z,3.40
2018-04-23T21:09:24.893Z,3.40
2018-04-23T21:19:23.228Z,3.40
2018-04-23T21:29:19.939Z,3.39
2018-04-23T21:39:17.733Z,3.39
2018-04-23T21:49:15.217Z,3.39
2018-04-23T21:59:10.219Z,3.39
2018-04-23T22:09:08.663Z,3.39
2018-04-23T22:19:07.312Z,3.39
2018-04-23T22:29:03.840Z,3.39
2018-04-23T22:39:00.523Z,3.39
2018-04-23T22:48:56.744Z,3.39
2018-04-23T22:58:53.165Z,3.39
2018-04-23T23:08:51.721Z,3.39
2018-04-23T23:18:47.890Z,3.39
2018-04-23T23:28:44.500Z,3.39
2018-04-23T23:38:41.537Z,3.39
2018-04-23T23:48:37.253Z,3.39
2018-04-23T23:58:32.404Z,3.39
